createdAt,value
2018-09-14T00:02:10.004Z,23.64
2018-09-14T00:04:35.981Z,23.63
2018-09-14T00:07:01.987Z,23.63
2018-09-14T00:09:27.963Z,23.64
2018-09-14T00:11:53.938Z,23.63
2018-09-14T00:14:19.912Z,23.63
2018-09-14T00:16:45.925Z,23.63
2018-09-14T00:19:11.900Z,23.63
2018-09-14T00:21:37.881Z,23.62
2018-09-14T00:24:03.862Z,23.63
2018-09-14T00:26:29.874Z,23.62
2018-09-14T00:28:55.851Z,23.62
2018-09-14T00:31:21.832Z,23.62
2018-09-14T00:33:47.817Z,23.62
2018-09-14T00:36:13.791Z,23.61
2018-09-14T00:38:39.783Z,23.61
2018-09-14T00:41:05.767Z,23.61
2018-09-14T00:43:31.750Z,23.61
2018-09-14T00:45:57.731Z,23.61
2018-09-14T00:48:23.704Z,23.61
2018-09-14T00:50:49.676Z,23.60
2018-09-14T00:53:15.654Z,23.59
2018-09-14T00:55:41.645Z,23.60
2018-09-14T00:58:07.626Z,23.59
2018-09-14T01:00:33.613Z,23.60
2018-09-14T01:02:59.593Z,23.59
2018-09-14T01:05:25.582Z,23.59
2018-09-14T01:07:51.552Z,23.59
2018-09-14T01:10:17.532Z,23.58
2018-09-14T01:12:43.510Z,23.58
2018-09-14T01:15:09.489Z,23.58
2018-09-14T01:17:35.474Z,23.58
2018-09-14T01:20:01.475Z,23.58
2018-09-14T01:22:27.431Z,23.58
2018-09-14T01:24:53.411Z,23.58
2018-09-14T01:27:19.383Z,23.58
2018-09-14T01:29:45.376Z,23.58
2018-09-14T01:32:11.365Z,23.57
2018-09-14T01:34:37.346Z,23.58
2018-09-14T01:37:03.334Z,23.57
2018-09-14T01:39:29.313Z,23.57
2018-09-14T01:41:55.294Z,23.57
2018-09-14T01:44:21.275Z,23.57
2018-09-14T01:46:47.249Z,23.56
2018-09-14T01:49:13.245Z,23.56
2018-09-14T01:51:39.215Z,23.56
2018-09-14T01:54:05.203Z,23.56
2018-09-14T01:56:31.187Z,23.56
2018-09-14T01:58:57.176Z,23.56
2018-09-14T02:01:23.160Z,23.56
2018-09-14T02:03:49.143Z,23.55
2018-09-14T02:06:15.120Z,23.55
2018-09-14T02:08:41.088Z,23.55
2018-09-14T02:11:07.079Z,23.55
2018-09-14T02:13:33.058Z,23.54
2018-09-14T02:15:59.041Z,23.55
2018-09-14T02:18:25.028Z,23.55
2018-09-14T02:20:51.004Z,23.55
2018-09-14T02:23:16.983Z,23.54
2018-09-14T02:25:43.000Z,23.54
2018-09-14T02:28:08.949Z,23.53
2018-09-14T02:30:34.932Z,23.53
2018-09-14T02:33:00.914Z,23.53
2018-09-14T02:35:26.888Z,23.52
2018-09-14T02:37:52.861Z,23.53
2018-09-14T02:40:18.846Z,23.53
2018-09-14T02:42:44.824Z,23.52
2018-09-14T02:45:10.807Z,23.52
2018-09-14T02:47:36.791Z,23.52
2018-09-14T02:50:02.771Z,23.52
2018-09-14T02:52:28.749Z,23.52
2018-09-14T02:54:54.724Z,23.52
2018-09-14T02:57:20.720Z,23.52
2018-09-14T02:59:46.705Z,23.52
2018-09-14T03:02:12.682Z,23.51
2018-09-14T03:04:38.662Z,23.51
2018-09-14T03:07:04.640Z,23.52
2018-09-14T03:09:30.618Z,23.51
2018-09-14T03:11:56.604Z,23.51
2018-09-14T03:14:22.590Z,23.51
2018-09-14T03:16:48.576Z,23.51
2018-09-14T03:19:14.550Z,23.50
2018-09-14T03:21:40.540Z,23.50
2018-09-14T03:24:06.517Z,23.50
2018-09-14T03:26:32.498Z,23.50
2018-09-14T03:28:58.477Z,23.50
2018-09-14T03:31:24.459Z,23.50
2018-09-14T03:33:50.443Z,23.50
2018-09-14T03:36:16.426Z,23.50
2018-09-14T03:38:42.420Z,23.50
2018-09-14T03:41:08.401Z,23.50
2018-09-14T03:43:34.384Z,23.50
2018-09-14T03:46:00.367Z,23.50
2018-09-14T03:48:26.346Z,23.49
2018-09-14T03:50:52.318Z,23.50
2018-09-14T03:53:18.313Z,23.49
2018-09-14T03:55:44.282Z,23.50
2018-09-14T03:58:10.258Z,23.49
2018-09-14T04:00:36.288Z,23.49
2018-09-14T04:03:02.268Z,23.49
2018-09-14T04:05:28.245Z,23.49
2018-09-14T04:07:54.239Z,23.49
2018-09-14T04:10:20.214Z,23.49
2018-09-14T04:12:46.190Z,23.49
2018-09-14T04:15:12.183Z,23.50
2018-09-14T04:17:38.157Z,23.50
2018-09-14T04:20:04.145Z,23.50
2018-09-14T04:22:30.146Z,23.51
2018-09-14T04:24:56.135Z,23.51
2018-09-14T04:27:22.109Z,23.51
2018-09-14T04:29:48.100Z,23.51
2018-09-14T04:32:14.073Z,23.51
2018-09-14T04:34:40.058Z,23.51
2018-09-14T04:37:06.039Z,23.51
2018-09-14T04:39:32.111Z,23.51
2018-09-14T04:41:58.107Z,23.51
2018-09-14T04:44:24.157Z,23.51
2018-09-14T04:46:50.134Z,23.50
2018-09-14T04:49:16.120Z,23.50
2018-09-14T04:51:42.105Z,23.50
2018-09-14T04:54:08.105Z,23.50
2018-09-14T04:56:34.085Z,23.50
2018-09-14T04:59:00.063Z,23.51
2018-09-14T05:01:26.045Z,23.52
2018-09-14T05:03:52.032Z,23.52
2018-09-14T05:06:18.018Z,23.53
2018-09-14T05:08:44.068Z,23.52
2018-09-14T05:11:10.060Z,23.52
2018-09-14T05:13:36.050Z,23.51
2018-09-14T05:16:02.043Z,23.50
2018-09-14T05:18:28.047Z,23.50
2018-09-14T05:20:54.063Z,23.50
2018-09-14T05:23:20.035Z,23.49
2018-09-14T05:25:46.015Z,23.49
2018-09-14T05:28:11.984Z,23.49
2018-09-14T05:30:37.997Z,23.49
2018-09-14T05:33:04.000Z,23.48
2018-09-14T05:35:29.986Z,23.49
2018-09-14T05:37:55.958Z,23.49
2018-09-14T05:40:21.956Z,23.48
2018-09-14T05:42:47.929Z,23.48
2018-09-14T05:45:13.908Z,23.47
2018-09-14T05:47:39.897Z,23.48
2018-09-14T05:50:05.918Z,23.47
2018-09-14T05:52:31.867Z,23.47
2018-09-14T05:54:57.895Z,23.47
2018-09-14T05:57:24.523Z,23.47
2018-09-14T05:59:50.535Z,23.47
2018-09-14T06:02:16.488Z,23.46
2018-09-14T06:04:42.457Z,23.46
2018-09-14T06:07:08.456Z,23.46
2018-09-14T06:09:34.479Z,23.46
2018-09-14T06:12:00.425Z,23.46
2018-09-14T06:14:26.400Z,23.45
2018-09-14T06:16:52.424Z,23.45
2018-09-14T06:19:18.422Z,23.45
2018-09-14T06:21:44.461Z,23.45
2018-09-14T06:24:10.451Z,23.45
2018-09-14T06:26:36.437Z,23.45
2018-09-14T06:29:02.410Z,23.45
2018-09-14T06:31:29.266Z,23.45
2018-09-14T06:33:55.244Z,23.45
2018-09-14T06:36:28.530Z,23.45
2018-09-14T06:38:59.209Z,23.44
2018-09-14T06:41:25.190Z,23.44
2018-09-14T06:43:51.168Z,23.44
2018-09-14T06:46:17.152Z,23.44
2018-09-14T06:48:43.140Z,23.44
2018-09-14T06:51:09.127Z,23.44
2018-09-14T06:53:35.134Z,23.44
2018-09-14T06:56:01.114Z,23.44
2018-09-14T06:58:27.141Z,23.44
2018-09-14T07:00:53.099Z,23.44
2018-09-14T07:03:23.976Z,23.44
2018-09-14T07:05:49.975Z,23.44
2018-09-14T07:08:15.951Z,23.43
2018-09-14T07:10:41.972Z,23.44
2018-09-14T07:13:07.990Z,23.44
2018-09-14T07:15:34.291Z,23.44
2018-09-14T07:18:00.243Z,23.44
2018-09-14T07:20:27.464Z,23.44
2018-09-14T07:22:53.412Z,23.44
2018-09-14T07:25:19.408Z,23.44
2018-09-14T07:27:45.400Z,23.44
2018-09-14T07:30:11.388Z,23.43
2018-09-14T07:32:37.402Z,23.44
2018-09-14T07:35:03.369Z,23.44
2018-09-14T07:37:29.362Z,23.44
2018-09-14T07:39:55.382Z,23.44
2018-09-14T07:42:21.383Z,23.44
2018-09-14T07:44:47.337Z,23.43
2018-09-14T07:47:13.322Z,23.43
2018-09-14T07:49:39.301Z,23.43
2018-09-14T07:52:05.291Z,23.44
2018-09-14T07:54:31.335Z,23.43
2018-09-14T07:56:57.330Z,23.44
2018-09-14T07:59:23.304Z,23.45
2018-09-14T08:01:49.293Z,23.47
2018-09-14T08:04:15.281Z,23.47
2018-09-14T08:06:41.259Z,23.48
2018-09-14T08:09:07.247Z,23.50
2018-09-14T08:11:33.230Z,23.50
2018-09-14T08:13:59.241Z,23.51
2018-09-14T08:16:25.381Z,23.55
2018-09-14T08:18:51.382Z,23.57
2018-09-14T08:21:17.407Z,23.57
2018-09-14T08:23:43.346Z,23.59
2018-09-14T08:26:09.347Z,23.61
2018-09-14T08:28:35.347Z,23.62
2018-09-14T08:31:01.351Z,23.61
2018-09-14T08:33:27.370Z,23.61
2018-09-14T08:35:53.362Z,23.60
2018-09-14T08:38:19.358Z,23.61
2018-09-14T08:40:45.338Z,23.62
2018-09-14T08:43:11.329Z,23.62
2018-09-14T08:45:37.306Z,23.62
2018-09-14T08:48:03.350Z,23.61
2018-09-14T08:50:29.265Z,23.61
2018-09-14T08:52:55.245Z,23.61
2018-09-14T08:55:21.222Z,23.61
2018-09-14T08:57:47.210Z,23.61
2018-09-14T09:00:13.193Z,23.62
2018-09-14T09:02:39.188Z,23.62
2018-09-14T09:05:05.167Z,23.62
2018-09-14T09:07:31.166Z,23.63
2018-09-14T09:09:57.146Z,23.63
2018-09-14T09:12:23.155Z,23.63
2018-09-14T09:14:49.137Z,23.62
2018-09-14T09:17:15.108Z,23.62
2018-09-14T09:19:41.105Z,23.67
2018-09-14T09:22:07.103Z,23.68
2018-09-14T09:24:33.188Z,23.69
2018-09-14T09:26:59.182Z,23.70
2018-09-14T09:29:25.169Z,23.70
2018-09-14T09:31:51.150Z,23.69
2018-09-14T09:34:17.157Z,23.68
2018-09-14T09:36:43.168Z,23.68
2018-09-14T09:39:09.165Z,23.67
2018-09-14T09:41:35.166Z,23.68
2018-09-14T09:44:01.216Z,23.67
2018-09-14T09:46:27.137Z,23.68
2018-09-14T09:48:53.115Z,23.69
2018-09-14T09:51:19.192Z,23.72
2018-09-14T09:53:45.117Z,23.73
2018-09-14T09:56:11.166Z,23.72
2018-09-14T09:58:37.157Z,23.71
2018-09-14T10:01:03.134Z,23.72
2018-09-14T10:03:29.162Z,23.71
2018-09-14T10:05:55.157Z,23.71
2018-09-14T10:08:21.152Z,23.70
2018-09-14T10:10:47.155Z,23.72
2018-09-14T10:13:13.135Z,23.73
2018-09-14T10:15:39.154Z,23.74
2018-09-14T10:18:05.136Z,23.73
2018-09-14T10:20:31.165Z,23.74
2018-09-14T10:22:57.115Z,23.73
2018-09-14T10:25:23.121Z,23.73
2018-09-14T10:27:49.124Z,23.72
2018-09-14T10:30:15.127Z,23.72
2018-09-14T10:32:41.126Z,23.72
2018-09-14T10:35:07.182Z,23.72
2018-09-14T10:37:33.101Z,23.72
2018-09-14T10:39:59.137Z,23.74
2018-09-14T10:42:25.102Z,23.72
2018-09-14T10:44:51.180Z,23.74
2018-09-14T10:47:17.161Z,23.73
2018-09-14T10:49:43.176Z,23.75
2018-09-14T10:52:09.205Z,23.78
2018-09-14T10:54:35.205Z,23.77
2018-09-14T10:57:01.188Z,23.76
2018-09-14T10:59:27.191Z,23.75
2018-09-14T11:01:53.170Z,23.75
2018-09-14T11:04:19.213Z,23.74
2018-09-14T11:06:45.250Z,23.74
2018-09-14T11:09:11.333Z,23.74
2018-09-14T11:11:37.313Z,23.74
2018-09-14T11:14:03.376Z,23.74
2018-09-14T11:16:29.370Z,23.72
2018-09-14T11:18:55.386Z,23.70
2018-09-14T11:21:21.377Z,23.68
2018-09-14T11:23:47.419Z,23.68
2018-09-14T11:26:13.420Z,23.67
2018-09-14T11:28:39.412Z,23.66
2018-09-14T11:31:05.443Z,23.66
2018-09-14T11:33:31.427Z,23.66
2018-09-14T11:35:57.472Z,23.68
2018-09-14T11:38:23.543Z,23.69
2018-09-14T11:40:49.465Z,23.69
2018-09-14T11:43:15.441Z,23.67
2018-09-14T11:45:41.451Z,23.67
2018-09-14T11:48:07.462Z,23.65
2018-09-14T11:50:33.435Z,23.64
2018-09-14T11:52:59.446Z,23.64
2018-09-14T11:55:25.445Z,23.64
2018-09-14T11:57:51.422Z,23.64
2018-09-14T12:00:17.433Z,23.64
2018-09-14T12:02:43.435Z,23.63
2018-09-14T12:05:09.436Z,23.63
2018-09-14T12:07:35.432Z,23.62
2018-09-14T12:10:01.405Z,23.63
2018-09-14T12:12:27.386Z,23.62
2018-09-14T12:14:53.383Z,23.62
2018-09-14T12:17:19.366Z,23.61
2018-09-14T12:19:45.386Z,23.61
2018-09-14T12:22:11.423Z,23.62
2018-09-14T12:24:37.406Z,23.61
2018-09-14T12:27:03.397Z,23.61
2018-09-14T12:29:29.391Z,23.61
2018-09-14T12:31:55.569Z,23.60
2018-09-14T12:34:21.596Z,23.60
2018-09-14T12:36:47.612Z,23.60
2018-09-14T12:39:13.589Z,23.59
2018-09-14T12:41:39.583Z,23.60
2018-09-14T12:44:05.553Z,23.60
2018-09-14T12:46:31.586Z,23.59
2018-09-14T12:48:57.562Z,23.59
2018-09-14T12:51:23.534Z,23.59
2018-09-14T12:53:49.517Z,23.58
2018-09-14T12:56:15.589Z,23.58
2018-09-14T12:58:41.549Z,23.58
2018-09-14T13:01:07.534Z,23.58
2018-09-14T13:03:33.523Z,23.58
2018-09-14T13:05:59.550Z,23.58
2018-09-14T13:08:25.604Z,23.59
2018-09-14T13:10:51.596Z,23.58
2018-09-14T13:13:17.590Z,23.58
2018-09-14T13:15:43.589Z,23.58
2018-09-14T13:18:09.571Z,23.58
2018-09-14T13:20:35.592Z,23.58
2018-09-14T13:23:01.602Z,23.58
2018-09-14T13:25:27.740Z,23.58
2018-09-14T13:27:53.971Z,23.58
2018-09-14T13:30:19.916Z,23.58
2018-09-14T13:32:46.940Z,23.58
2018-09-14T13:35:12.938Z,23.59
2018-09-14T13:37:39.028Z,23.58
2018-09-14T13:40:05.051Z,23.58
2018-09-14T13:42:31.044Z,23.59
2018-09-14T13:44:57.037Z,23.60
2018-09-14T13:47:23.020Z,23.63
2018-09-14T13:49:48.994Z,23.64
2018-09-14T13:52:14.998Z,23.64
2018-09-14T13:54:40.975Z,23.64
2018-09-14T13:57:06.956Z,23.64
2018-09-14T13:59:33.006Z,23.65
2018-09-14T14:01:59.008Z,23.64
2018-09-14T14:04:24.924Z,23.64
2018-09-14T14:06:50.906Z,23.66
2018-09-14T14:09:16.887Z,23.68
2018-09-14T14:11:42.872Z,23.70
2018-09-14T14:14:08.889Z,23.70
2018-09-14T14:16:34.869Z,23.72
2018-09-14T14:19:00.873Z,23.73
2018-09-14T14:21:26.874Z,23.72
2018-09-14T14:23:52.855Z,23.72
2018-09-14T14:26:18.832Z,23.71
2018-09-14T14:28:44.830Z,23.71
2018-09-14T14:31:10.809Z,23.72
2018-09-14T14:33:36.815Z,23.73
2018-09-14T14:36:02.815Z,23.73
2018-09-14T14:38:28.855Z,23.74
2018-09-14T14:40:54.793Z,23.74
2018-09-14T14:43:20.834Z,23.73
2018-09-14T14:45:46.859Z,23.74
2018-09-14T14:48:12.837Z,23.73
2018-09-14T14:50:38.831Z,23.74
2018-09-14T14:53:04.862Z,23.76
2018-09-14T14:55:30.834Z,23.77
2018-09-14T14:57:56.888Z,23.77
2018-09-14T15:00:22.954Z,23.78
2018-09-14T15:02:48.971Z,23.80
2018-09-14T15:05:14.944Z,23.81
2018-09-14T15:07:40.932Z,23.81
2018-09-14T15:10:06.917Z,23.82
2018-09-14T15:12:32.942Z,23.83
2018-09-14T15:14:58.919Z,23.84
2018-09-14T15:17:24.927Z,23.83
2018-09-14T15:19:50.907Z,23.83
2018-09-14T15:22:16.898Z,23.83
2018-09-14T15:24:45.546Z,23.84
2018-09-14T15:27:11.494Z,23.84
2018-09-14T15:29:37.507Z,23.82
2018-09-14T15:32:03.510Z,23.83
2018-09-14T15:34:29.525Z,23.83
2018-09-14T15:36:55.510Z,23.84
2018-09-14T15:39:21.493Z,23.84
2018-09-14T15:41:47.505Z,23.84
2018-09-14T15:44:13.517Z,23.81
2018-09-14T15:46:39.524Z,23.81
2018-09-14T15:49:05.593Z,23.81
2018-09-14T15:51:31.519Z,23.82
2018-09-14T15:53:57.495Z,23.81
2018-09-14T15:56:23.498Z,23.82
2018-09-14T15:58:49.501Z,23.81
2018-09-14T16:01:15.530Z,23.80
2018-09-14T16:03:41.549Z,23.79
2018-09-14T16:06:07.523Z,23.78
2018-09-14T16:08:33.507Z,23.78
2018-09-14T16:10:59.529Z,23.77
2018-09-14T16:13:25.538Z,23.76
2018-09-14T16:15:51.482Z,23.77
2018-09-14T16:18:17.495Z,23.78
2018-09-14T16:20:43.445Z,23.79
2018-09-14T16:23:09.446Z,23.79
2018-09-14T16:25:35.440Z,23.79
2018-09-14T16:28:01.408Z,23.81
2018-09-14T16:30:27.387Z,23.82
2018-09-14T16:32:53.368Z,23.79
2018-09-14T16:35:19.363Z,23.77
2018-09-14T16:37:45.345Z,23.76
2018-09-14T16:40:11.381Z,23.74
2018-09-14T16:42:37.352Z,23.73
2018-09-14T16:45:03.351Z,23.72
2018-09-14T16:47:29.357Z,23.70
2018-09-14T16:49:55.332Z,23.69
2018-09-14T16:52:21.361Z,23.69
2018-09-14T16:54:47.357Z,23.69
2018-09-14T16:57:13.334Z,23.68
2018-09-14T16:59:39.312Z,23.67
2018-09-14T17:02:05.314Z,23.67
2018-09-14T17:04:31.314Z,23.66
2018-09-14T17:06:57.287Z,23.65
2018-09-14T17:09:23.265Z,23.65
2018-09-14T17:11:49.266Z,23.65
2018-09-14T17:14:15.260Z,23.64
2018-09-14T17:16:41.232Z,23.64
2018-09-14T17:19:07.233Z,23.64
2018-09-14T17:21:33.320Z,23.64
2018-09-14T17:23:59.214Z,23.64
2018-09-14T17:26:25.218Z,23.64
2018-09-14T17:28:51.175Z,23.63
2018-09-14T17:31:17.155Z,23.62
2018-09-14T17:33:43.146Z,23.62
2018-09-14T17:36:09.132Z,23.61
2018-09-14T17:38:35.118Z,23.61
2018-09-14T17:41:01.098Z,23.60
2018-09-14T17:43:27.080Z,23.60
2018-09-14T17:45:53.079Z,23.59
2018-09-14T17:48:19.063Z,23.59
2018-09-14T17:50:45.048Z,23.58
2018-09-14T17:53:11.032Z,23.57
2018-09-14T17:55:37.068Z,23.57
2018-09-14T17:58:03.045Z,23.57
2018-09-14T18:00:29.034Z,23.57
2018-09-14T18:02:55.014Z,23.57
2018-09-14T18:05:20.999Z,23.58
2018-09-14T18:07:47.016Z,23.57
2018-09-14T18:10:13.004Z,23.57
2018-09-14T18:12:38.984Z,23.56
2018-09-14T18:15:04.962Z,23.56
2018-09-14T18:17:30.944Z,23.56
2018-09-14T18:19:56.917Z,23.56
2018-09-14T18:22:22.924Z,23.56
2018-09-14T18:24:48.901Z,23.56
2018-09-14T18:27:14.876Z,23.57
2018-09-14T18:29:40.866Z,23.58
2018-09-14T18:32:06.844Z,23.59
2018-09-14T18:34:32.881Z,23.59
2018-09-14T18:36:58.853Z,23.60
2018-09-14T18:39:24.828Z,23.60
2018-09-14T18:41:50.813Z,23.59
2018-09-14T18:44:16.794Z,23.61
2018-09-14T18:46:42.801Z,23.63
2018-09-14T18:49:08.766Z,23.64
2018-09-14T18:51:34.736Z,23.66
2018-09-14T18:54:00.761Z,23.66
2018-09-14T18:56:26.748Z,23.67
2018-09-14T18:58:52.746Z,23.67
2018-09-14T19:01:18.726Z,23.68
2018-09-14T19:03:44.712Z,23.69
2018-09-14T19:06:10.698Z,23.69
2018-09-14T19:08:36.675Z,23.68
2018-09-14T19:11:02.654Z,23.68
2018-09-14T19:13:28.726Z,23.69
2018-09-14T19:15:54.620Z,23.70
2018-09-14T19:18:20.589Z,23.69
2018-09-14T19:20:46.572Z,23.69
2018-09-14T19:23:12.556Z,23.69
2018-09-14T19:25:38.543Z,23.69
2018-09-14T19:28:04.517Z,23.68
2018-09-14T19:30:30.511Z,23.68
2018-09-14T19:32:56.497Z,23.69
2018-09-14T19:35:22.509Z,23.69
2018-09-14T19:37:48.482Z,23.69
2018-09-14T19:40:14.461Z,23.70
2018-09-14T19:42:40.445Z,23.70
2018-09-14T19:45:06.434Z,23.71
2018-09-14T19:47:32.416Z,23.70
2018-09-14T19:49:58.408Z,23.71
2018-09-14T19:52:24.378Z,23.70
2018-09-14T19:54:50.416Z,23.70
2018-09-14T19:57:16.392Z,23.69
2018-09-14T19:59:42.480Z,23.68
2018-09-14T20:02:08.417Z,23.66
2018-09-14T20:04:34.397Z,23.66
2018-09-14T20:07:00.388Z,23.64
2018-09-14T20:09:26.446Z,23.63
2018-09-14T20:11:52.426Z,23.62
2018-09-14T20:14:18.473Z,23.61
2018-09-14T20:16:44.456Z,23.61
2018-09-14T20:19:10.445Z,23.60
2018-09-14T20:21:36.428Z,23.59
2018-09-14T20:24:02.461Z,23.59
2018-09-14T20:26:28.440Z,23.58
2018-09-14T20:28:54.760Z,23.58
2018-09-14T20:31:20.745Z,23.58
2018-09-14T20:33:46.724Z,23.57
2018-09-14T20:36:12.785Z,23.57
2018-09-14T20:38:38.949Z,23.57
2018-09-14T20:41:04.930Z,23.55
2018-09-14T20:43:31.008Z,23.55
2018-09-14T20:45:56.900Z,23.54
2018-09-14T20:48:23.241Z,23.54
2018-09-14T20:50:49.222Z,23.54
2018-09-14T20:53:15.197Z,23.54
2018-09-14T20:55:41.307Z,23.53
2018-09-14T20:58:07.288Z,23.53
2018-09-14T21:00:33.319Z,23.53
2018-09-14T21:02:59.302Z,23.53
2018-09-14T21:05:25.320Z,23.52
2018-09-14T21:07:51.276Z,23.52
2018-09-14T21:10:17.256Z,23.52
2018-09-14T21:12:43.237Z,23.52
2018-09-14T21:15:09.225Z,23.51
2018-09-14T21:17:35.217Z,23.51
2018-09-14T21:20:01.199Z,23.51
2018-09-14T21:22:27.188Z,23.51
2018-09-14T21:24:53.171Z,23.50
2018-09-14T21:27:19.162Z,23.50
2018-09-14T21:29:45.143Z,23.50
2018-09-14T21:32:11.117Z,23.50
2018-09-14T21:34:37.100Z,23.50
2018-09-14T21:37:03.078Z,23.49
2018-09-14T21:39:29.054Z,23.49
2018-09-14T21:41:55.049Z,23.49
2018-09-14T21:44:21.049Z,23.49
2018-09-14T21:46:47.050Z,23.48
2018-09-14T21:49:13.050Z,23.49
2018-09-14T21:51:39.024Z,23.48
2018-09-14T21:54:05.097Z,23.48
2018-09-14T21:56:31.083Z,23.48
2018-09-14T21:58:57.148Z,23.48
2018-09-14T22:01:23.153Z,23.47
2018-09-14T22:03:49.166Z,23.47
2018-09-14T22:06:15.199Z,23.47
2018-09-14T22:08:41.200Z,23.47
2018-09-14T22:11:07.155Z,23.46
2018-09-14T22:13:33.135Z,23.46
2018-09-14T22:15:59.120Z,23.46
2018-09-14T22:18:25.149Z,23.46
2018-09-14T22:20:51.130Z,23.46
2018-09-14T22:23:17.158Z,23.45
2018-09-14T22:25:43.147Z,23.45
2018-09-14T22:28:09.123Z,23.45
2018-09-14T22:30:35.147Z,23.45
2018-09-14T22:33:01.113Z,23.46
2018-09-14T22:35:27.132Z,23.45
2018-09-14T22:37:53.064Z,23.45
2018-09-14T22:40:19.041Z,23.45
2018-09-14T22:42:45.013Z,23.45
2018-09-14T22:45:11.002Z,23.45
2018-09-14T22:47:36.976Z,23.44
2018-09-14T22:50:02.988Z,23.44
2018-09-14T22:52:28.970Z,23.45
2018-09-14T22:54:54.945Z,23.44
2018-09-14T22:57:20.939Z,23.43
2018-09-14T22:59:46.931Z,23.44
2018-09-14T23:02:12.911Z,23.44
2018-09-14T23:04:38.891Z,23.44
2018-09-14T23:07:04.885Z,23.43
2018-09-14T23:09:38.380Z,23.43
2018-09-14T23:12:04.359Z,23.43
2018-09-14T23:14:33.346Z,23.43
2018-09-14T23:16:59.320Z,23.43
2018-09-14T23:19:25.304Z,23.43
2018-09-14T23:21:51.282Z,23.43
2018-09-14T23:24:17.277Z,23.43
2018-09-14T23:26:43.255Z,23.43
2018-09-14T23:29:09.249Z,23.43
2018-09-14T23:31:35.232Z,23.42
2018-09-14T23:34:01.224Z,23.42
2018-09-14T23:36:27.208Z,23.42
2018-09-14T23:38:53.195Z,23.42
2018-09-14T23:41:19.214Z,23.41
2018-09-14T23:43:45.199Z,23.42
2018-09-14T23:46:11.178Z,23.42
2018-09-14T23:48:37.163Z,23.41
2018-09-14T23:51:03.152Z,23.41
2018-09-14T23:53:29.137Z,23.41
2018-09-14T23:55:55.119Z,23.41
2018-09-14T23:58:21.099Z,23.41
